createdAt,value
2022-09-17T00:01:28.597Z,12.00
2022-09-17T00:03:57.693Z,12.00
2022-09-17T00:06:25.801Z,12.10
2022-09-17T00:08:54.002Z,12.00
2022-09-17T00:11:32.037Z,12.20
2022-09-17T00:14:01.137Z,12.10
2022-09-17T00:16:37.133Z,12.20
2022-09-17T00:19:06.080Z,12.10
2022-09-17T00:21:32.998Z,12.20
2022-09-17T00:24:04.460Z,12.20
2022-09-17T00:26:32.593Z,12.30
2022-09-17T00:29:00.406Z,12.30
2022-09-17T00:31:29.290Z,12.40
2022-09-17T00:33:56.313Z,12.20
2022-09-17T00:36:23.194Z,12.20
2022-09-17T00:38:55.283Z,12.30
2022-09-17T00:41:23.831Z,12.20
2022-09-17T00:43:55.286Z,12.30
2022-09-17T00:46:44.458Z,12.40
2022-09-17T00:49:18.651Z,12.10
2022-09-17T00:52:01.680Z,12.20
2022-09-17T00:54:29.114Z,12.20
2022-09-17T00:56:57.198Z,12.30
2022-09-17T00:59:24.991Z,12.30
2022-09-17T01:01:52.891Z,12.40
2022-09-17T01:04:22.440Z,12.40
2022-09-17T01:07:03.049Z,12.40
2022-09-17T01:09:55.715Z,12.60
2022-09-17T01:13:10.523Z,12.50
2022-09-17T01:15:40.355Z,12.60
2022-09-17T01:18:22.696Z,12.80
2022-09-17T01:21:27.517Z,12.60
2022-09-17T01:24:08.943Z,12.60
2022-09-17T01:26:54.758Z,12.60
2022-09-17T01:29:34.784Z,12.60
2022-09-17T01:32:20.387Z,12.60
2022-09-17T01:35:02.952Z,12.80
2022-09-17T01:37:37.848Z,12.70
2022-09-17T01:40:16.019Z,12.80
2022-09-17T01:42:59.987Z,12.60
2022-09-17T01:45:44.974Z,12.60
2022-09-17T01:48:19.622Z,12.70
2022-09-17T01:50:53.265Z,12.70
2022-09-17T01:53:25.669Z,12.70
2022-09-17T01:55:55.332Z,12.70
2022-09-17T01:58:40.415Z,12.60
2022-09-17T02:01:09.834Z,12.70
2022-09-17T02:04:09.591Z,12.70
2022-09-17T02:06:40.608Z,12.60
2022-09-17T02:09:16.749Z,12.80
2022-09-17T02:11:51.159Z,12.60
2022-09-17T02:14:27.097Z,12.70
2022-09-17T02:17:05.744Z,12.80
2022-09-17T02:19:38.141Z,12.60
2022-09-17T02:22:30.055Z,12.50
2022-09-17T02:25:04.604Z,12.50
2022-09-17T02:27:36.935Z,12.50
2022-09-17T02:30:04.991Z,12.40
2022-09-17T02:32:31.878Z,12.40
2022-09-17T02:34:58.646Z,12.40
2022-09-17T02:37:25.621Z,12.30
2022-09-17T02:39:52.472Z,12.30
2022-09-17T02:42:37.424Z,12.40
2022-09-17T02:45:10.322Z,12.20
2022-09-17T02:47:58.950Z,12.20
2022-09-17T02:50:25.649Z,12.20
2022-09-17T02:53:07.859Z,12.20
2022-09-17T02:56:00.669Z,12.10
2022-09-17T02:58:34.214Z,12.20
2022-09-17T03:01:07.485Z,12.10
2022-09-17T03:03:45.710Z,12.20
2022-09-17T03:06:13.801Z,12.30
2022-09-17T03:08:42.628Z,12.10
2022-09-17T03:11:12.900Z,12.10
2022-09-17T03:13:40.045Z,12.00
2022-09-17T03:16:07.977Z,12.10
2022-09-17T03:18:34.996Z,12.00
2022-09-17T03:21:01.809Z,12.00
2022-09-17T03:23:29.054Z,12.00
2022-09-17T03:25:55.873Z,11.90
2022-09-17T03:28:23.321Z,11.90
2022-09-17T03:30:50.070Z,12.20
2022-09-17T03:33:17.470Z,11.90
2022-09-17T03:35:45.287Z,12.10
2022-09-17T03:38:12.772Z,11.90
2022-09-17T03:40:40.659Z,11.90
2022-09-17T03:43:07.624Z,11.80
2022-09-17T03:45:34.754Z,11.70
2022-09-17T03:48:01.810Z,11.80
2022-09-17T03:50:28.583Z,11.70
2022-09-17T03:52:55.346Z,11.70
2022-09-17T03:55:22.084Z,11.70
2022-09-17T03:57:48.940Z,11.70
2022-09-17T04:00:17.426Z,11.80
2022-09-17T04:02:44.481Z,11.70
2022-09-17T04:05:11.547Z,11.60
2022-09-17T04:07:40.465Z,11.50
2022-09-17T04:10:08.145Z,11.50
2022-09-17T04:12:35.021Z,11.40
2022-09-17T04:15:01.765Z,11.50
2022-09-17T04:17:28.622Z,11.30
2022-09-17T04:19:55.436Z,11.20
2022-09-17T04:22:22.243Z,11.10
2022-09-17T04:24:49.005Z,11.10
2022-09-17T04:27:15.902Z,11.10
2022-09-17T04:29:42.936Z,11.00
2022-09-17T04:32:09.701Z,10.90
2022-09-17T04:34:36.830Z,11.00
2022-09-17T04:37:03.720Z,11.90
2022-09-17T04:39:30.456Z,10.80
2022-09-17T04:41:57.203Z,10.70
2022-09-17T04:44:24.059Z,10.70
2022-09-17T04:46:50.911Z,10.70
2022-09-17T04:49:17.729Z,10.60
2022-09-17T04:51:44.485Z,10.70
2022-09-17T04:54:11.313Z,10.70
2022-09-17T04:56:38.084Z,10.50
2022-09-17T04:59:04.861Z,10.60
2022-09-17T05:01:31.649Z,10.50
2022-09-17T05:03:58.567Z,10.70
2022-09-17T05:06:25.390Z,10.50
2022-09-17T05:08:52.143Z,10.40
2022-09-17T05:11:18.934Z,10.40
2022-09-17T05:13:45.689Z,10.40
2022-09-17T05:16:12.652Z,10.40
2022-09-17T05:18:39.546Z,10.40
2022-09-17T05:21:07.664Z,10.40
2022-09-17T05:23:34.446Z,10.50
2022-09-17T05:26:01.264Z,10.40
2022-09-17T05:28:28.639Z,10.60
2022-09-17T05:30:58.607Z,10.50
2022-09-17T05:33:25.445Z,10.50
2022-09-17T05:35:52.353Z,10.50
2022-09-17T05:38:19.366Z,10.50
2022-09-17T05:40:46.553Z,10.50
2022-09-17T05:43:13.306Z,10.50
2022-09-17T05:45:40.216Z,10.60
2022-09-17T05:48:10.225Z,10.70
2022-09-17T05:50:37.071Z,10.80
2022-09-17T05:53:10.434Z,10.70
2022-09-17T05:55:37.537Z,10.80
2022-09-17T05:58:18.937Z,10.80
2022-09-17T06:00:47.195Z,10.80
2022-09-17T06:03:15.519Z,10.90
2022-09-17T06:05:42.678Z,10.80
2022-09-17T06:08:09.830Z,10.80
2022-09-17T06:10:37.564Z,11.00
2022-09-17T06:13:04.744Z,10.90
2022-09-17T06:15:31.698Z,11.00
2022-09-17T06:17:58.460Z,11.00
2022-09-17T06:20:25.271Z,11.30
2022-09-17T06:22:57.141Z,11.10
2022-09-17T06:25:24.195Z,11.00
2022-09-17T06:27:50.967Z,11.00
2022-09-17T06:30:17.792Z,11.10
2022-09-17T06:32:44.549Z,11.10
2022-09-17T06:35:11.283Z,11.30
2022-09-17T06:37:40.321Z,11.20
2022-09-17T06:40:08.404Z,11.40
2022-09-17T06:42:35.257Z,11.40
2022-09-17T06:45:06.945Z,11.50
2022-09-17T06:47:35.401Z,11.60
2022-09-17T06:50:02.479Z,11.70
2022-09-17T06:52:29.346Z,11.80
2022-09-17T06:54:56.598Z,11.90
2022-09-17T06:57:23.454Z,12.00
2022-09-17T06:59:50.242Z,12.00
2022-09-17T07:02:17.150Z,12.10
2022-09-17T07:04:43.980Z,12.30
2022-09-17T07:07:10.781Z,12.30
2022-09-17T07:09:37.687Z,12.40
2022-09-17T07:12:08.230Z,12.50
2022-09-17T07:14:34.996Z,12.50
2022-09-17T07:17:01.725Z,12.80
2022-09-17T07:19:28.550Z,13.10
2022-09-17T07:21:55.282Z,13.10
2022-09-17T07:24:22.064Z,13.20
2022-09-17T07:26:50.340Z,13.60
2022-09-17T07:29:17.095Z,14.20
2022-09-17T07:31:43.973Z,14.50
2022-09-17T07:34:11.103Z,15.10
2022-09-17T07:36:38.034Z,15.70
2022-09-17T07:39:04.923Z,16.00
2022-09-17T07:41:32.247Z,16.10
2022-09-17T07:43:59.120Z,15.60
2022-09-17T07:46:26.076Z,15.00
2022-09-17T07:48:52.879Z,15.00
2022-09-17T07:51:25.598Z,15.20
2022-09-17T07:53:54.061Z,14.90
2022-09-17T07:56:21.390Z,14.80
2022-09-17T07:58:48.783Z,15.00
2022-09-17T08:01:16.789Z,15.30
2022-09-17T08:03:47.798Z,15.70
2022-09-17T08:06:16.297Z,16.10
2022-09-17T08:08:43.397Z,16.50
2022-09-17T08:11:13.206Z,17.00
2022-09-17T08:13:40.525Z,17.10
2022-09-17T08:16:10.205Z,17.40
2022-09-17T08:18:37.772Z,17.20
2022-09-17T08:21:06.382Z,17.10
2022-09-17T08:23:36.417Z,17.10
2022-09-17T08:26:04.801Z,16.70
2022-09-17T08:28:32.036Z,16.50
2022-09-17T08:31:04.613Z,16.50
2022-09-17T08:33:36.914Z,16.60
2022-09-17T08:36:05.277Z,16.90
2022-09-17T08:38:37.885Z,17.30
2022-09-17T08:41:21.530Z,17.70
2022-09-17T08:43:58.749Z,17.80
2022-09-17T08:46:26.385Z,17.80
2022-09-17T08:49:11.199Z,18.10
2022-09-17T08:51:41.769Z,18.50
2022-09-17T08:54:36.117Z,18.90
2022-09-17T08:57:27.041Z,19.20
2022-09-17T09:00:17.464Z,19.70
2022-09-17T09:03:03.708Z,20.00
2022-09-17T09:05:50.307Z,19.90
2022-09-17T09:08:32.258Z,19.90
2022-09-17T09:11:02.153Z,19.70
2022-09-17T09:13:36.470Z,19.50
2022-09-17T09:16:11.757Z,19.60
2022-09-17T09:18:42.282Z,19.50
2022-09-17T09:21:49.051Z,19.30
2022-09-17T09:24:21.797Z,18.60
2022-09-17T09:27:01.758Z,18.10
2022-09-17T09:29:56.819Z,17.80
2022-09-17T09:32:50.223Z,17.40
2022-09-17T09:35:30.010Z,17.10
2022-09-17T09:38:15.403Z,17.10
2022-09-17T09:40:44.590Z,16.80
2022-09-17T09:43:21.845Z,16.60
2022-09-17T09:45:56.718Z,16.60
2022-09-17T09:48:54.672Z,16.70
2022-09-17T09:51:40.717Z,16.60
2022-09-17T09:54:22.496Z,16.50
2022-09-17T09:56:59.156Z,16.40
2022-09-17T09:59:26.822Z,16.30
2022-09-17T10:01:53.816Z,16.10
2022-09-17T10:04:26.938Z,16.10
2022-09-17T10:07:14.025Z,16.40
2022-09-17T10:09:46.224Z,16.50
2022-09-17T10:12:13.358Z,17.00
2022-09-17T10:14:42.091Z,17.00
2022-09-17T10:17:22.340Z,17.00
2022-09-17T10:20:14.135Z,17.50
2022-09-17T10:22:42.565Z,18.40
2022-09-17T10:25:22.772Z,18.70
2022-09-17T10:27:49.892Z,18.90
2022-09-17T10:30:18.569Z,19.30
2022-09-17T10:33:14.116Z,19.40
2022-09-17T10:35:40.857Z,20.00
2022-09-17T10:38:28.383Z,20.60
2022-09-17T10:41:13.356Z,20.80
2022-09-17T10:43:41.450Z,20.90
2022-09-17T10:46:12.262Z,20.80
2022-09-17T10:48:50.846Z,21.00
2022-09-17T10:51:24.232Z,21.20
2022-09-17T10:54:15.401Z,20.80
2022-09-17T10:56:48.866Z,20.30
2022-09-17T10:59:45.279Z,20.20
2022-09-17T11:02:38.786Z,20.10
2022-09-17T11:05:17.789Z,19.70
2022-09-17T11:07:55.141Z,19.30
2022-09-17T11:10:31.218Z,19.20
2022-09-17T11:13:39.590Z,19.10
2022-09-17T11:16:40.538Z,19.10
2022-09-17T11:19:13.410Z,18.60
2022-09-17T11:21:50.342Z,18.20
2022-09-17T11:24:45.800Z,17.30
2022-09-17T11:27:37.263Z,16.40
2022-09-17T11:30:16.230Z,15.80
2022-09-17T11:32:48.837Z,15.50
2022-09-17T11:35:17.341Z,15.30
2022-09-17T11:37:50.230Z,15.20
2022-09-17T11:40:22.593Z,15.40
2022-09-17T11:43:05.040Z,15.20
2022-09-17T11:45:39.674Z,15.10
2022-09-17T11:48:12.768Z,15.00
2022-09-17T11:50:55.295Z,15.00
2022-09-17T11:53:47.890Z,15.00
2022-09-17T11:56:32.413Z,15.00
2022-09-17T11:59:12.676Z,15.10
2022-09-17T12:01:58.811Z,14.90
2022-09-17T12:04:46.170Z,14.80
2022-09-17T12:07:25.682Z,14.80
2022-09-17T12:09:59.595Z,14.80
2022-09-17T12:12:48.554Z,14.80
2022-09-17T12:15:22.188Z,14.80
2022-09-17T12:18:34.333Z,15.00
2022-09-17T12:21:05.005Z,14.70
2022-09-17T12:23:44.318Z,14.70
2022-09-17T12:26:29.422Z,14.70
2022-09-17T12:29:01.835Z,14.70
2022-09-17T12:31:51.372Z,14.80
2022-09-17T12:34:22.981Z,14.90
2022-09-17T12:37:10.954Z,15.00
2022-09-17T12:39:55.645Z,15.00
2022-09-17T12:42:48.362Z,15.10
2022-09-17T12:45:34.930Z,15.10
2022-09-17T12:48:07.433Z,15.10
2022-09-17T12:50:58.890Z,15.00
2022-09-17T12:53:32.967Z,14.90
2022-09-17T12:56:17.673Z,14.90
2022-09-17T12:59:05.458Z,14.70
2022-09-17T13:01:48.457Z,14.60
2022-09-17T13:04:56.928Z,14.50
2022-09-17T13:07:28.431Z,14.20
2022-09-17T13:10:26.369Z,14.20
2022-09-17T13:13:00.691Z,14.00
2022-09-17T13:15:35.411Z,13.90
2022-09-17T13:18:27.413Z,13.90
2022-09-17T13:20:54.437Z,13.80
2022-09-17T13:23:43.846Z,14.10
2022-09-17T13:26:17.009Z,13.80
2022-09-17T13:28:51.961Z,14.00
2022-09-17T13:31:35.331Z,13.90
2022-09-17T13:34:03.528Z,13.90
2022-09-17T13:36:47.061Z,13.90
2022-09-17T13:39:35.695Z,13.90
2022-09-17T13:42:28.868Z,13.90
2022-09-17T13:45:13.296Z,14.00
2022-09-17T13:47:54.182Z,13.90
2022-09-17T13:50:33.946Z,13.80
2022-09-17T13:53:16.292Z,13.80
2022-09-17T13:55:55.358Z,14.00
2022-09-17T13:58:25.323Z,13.90
2022-09-17T14:00:57.171Z,13.90
2022-09-17T14:03:51.659Z,13.80
2022-09-17T14:06:19.461Z,14.00
2022-09-17T14:08:54.526Z,13.90
2022-09-17T14:11:24.177Z,13.80
2022-09-17T14:14:15.557Z,13.70
2022-09-17T14:16:48.371Z,13.70
2022-09-17T14:19:36.898Z,13.80
2022-09-17T14:22:13.161Z,13.80
2022-09-17T14:24:43.013Z,14.00
2022-09-17T14:27:12.760Z,14.10
2022-09-17T14:30:13.250Z,14.20
2022-09-17T14:33:01.269Z,14.20
2022-09-17T14:35:34.056Z,14.30
2022-09-17T14:38:09.378Z,14.40
2022-09-17T14:40:49.746Z,14.40
2022-09-17T14:43:49.115Z,14.60
2022-09-17T14:46:29.350Z,14.60
2022-09-17T14:49:15.713Z,14.60
2022-09-17T14:51:42.826Z,14.60
2022-09-17T14:54:35.072Z,14.50
2022-09-17T14:57:10.283Z,14.50
2022-09-17T14:59:52.264Z,14.40
2022-09-17T15:02:28.726Z,14.30
2022-09-17T15:04:55.895Z,14.70
2022-09-17T15:07:23.407Z,14.40
2022-09-17T15:09:52.766Z,14.40
2022-09-17T15:12:22.514Z,14.40
2022-09-17T15:14:49.335Z,14.40
2022-09-17T15:17:19.271Z,14.40
2022-09-17T15:19:51.473Z,14.20
2022-09-17T15:22:25.258Z,14.10
2022-09-17T15:24:54.085Z,14.00
2022-09-17T15:27:34.115Z,14.30
2022-09-17T15:30:12.565Z,14.00
2022-09-17T15:32:59.559Z,13.90
2022-09-17T15:35:30.193Z,13.70
2022-09-17T15:38:23.703Z,13.50
2022-09-17T15:40:51.788Z,13.30
2022-09-17T15:43:31.598Z,13.10
2022-09-17T15:46:21.569Z,12.90
2022-09-17T15:48:48.488Z,12.70
2022-09-17T15:51:33.475Z,12.90
2022-09-17T15:54:04.623Z,12.60
2022-09-17T15:56:34.206Z,12.70
2022-09-17T15:59:04.730Z,12.50
2022-09-17T16:01:38.612Z,12.40
2022-09-17T16:04:08.411Z,12.30
2022-09-17T16:06:38.822Z,12.10
2022-09-17T16:09:38.018Z,12.10
2022-09-17T16:12:05.066Z,12.10
2022-09-17T16:14:31.842Z,12.10
2022-09-17T16:16:59.676Z,12.10
2022-09-17T16:19:26.886Z,12.20
2022-09-17T16:21:53.681Z,12.10
2022-09-17T16:24:20.475Z,12.10
2022-09-17T16:26:47.233Z,12.20
2022-09-17T16:29:17.409Z,12.00
2022-09-17T16:31:44.971Z,12.00
2022-09-17T16:34:12.005Z,12.00
2022-09-17T16:36:39.254Z,11.90
2022-09-17T16:39:06.068Z,12.00
2022-09-17T16:41:32.877Z,12.10
2022-09-17T16:43:59.634Z,12.10
2022-09-17T16:46:26.558Z,11.80
2022-09-17T16:48:53.318Z,11.90
2022-09-17T16:51:20.141Z,11.90
2022-09-17T16:53:47.019Z,11.90
2022-09-17T16:56:15.511Z,12.00
2022-09-17T16:58:42.599Z,11.90
2022-09-17T17:01:14.973Z,11.90
2022-09-17T17:03:42.741Z,11.90
2022-09-17T17:06:19.340Z,11.80
2022-09-17T17:08:46.211Z,11.90
2022-09-17T17:11:13.404Z,11.90
2022-09-17T17:13:42.049Z,12.10
2022-09-17T17:16:10.588Z,12.00
2022-09-17T17:18:37.860Z,12.00
2022-09-17T17:21:09.056Z,12.00
2022-09-17T17:23:36.103Z,12.00
2022-09-17T17:26:03.744Z,11.80
2022-09-17T17:28:35.630Z,11.80
2022-09-17T17:31:05.779Z,11.80
2022-09-17T17:33:33.254Z,11.70
2022-09-17T17:36:07.362Z,11.80
2022-09-17T17:38:34.874Z,11.80
2022-09-17T17:41:14.243Z,11.80
2022-09-17T17:43:41.811Z,12.00
2022-09-17T17:46:10.512Z,11.80
2022-09-17T17:48:38.203Z,11.70
2022-09-17T17:51:09.977Z,11.70
2022-09-17T17:53:37.633Z,11.80
2022-09-17T17:56:06.987Z,11.70
2022-09-17T17:58:34.893Z,11.60
2022-09-17T18:01:14.053Z,11.70
2022-09-17T18:03:40.920Z,11.70
2022-09-17T18:06:08.361Z,12.00
2022-09-17T18:08:40.354Z,12.00
2022-09-17T18:11:08.947Z,12.00
2022-09-17T18:13:37.327Z,11.70
2022-09-17T18:16:05.837Z,11.80
2022-09-17T18:18:35.727Z,11.70
2022-09-17T18:21:07.661Z,11.70
2022-09-17T18:23:37.543Z,11.70
2022-09-17T18:26:06.368Z,11.80
2022-09-17T18:28:35.200Z,11.70
2022-09-17T18:31:06.380Z,11.70
2022-09-17T18:33:33.275Z,11.70
2022-09-17T18:36:05.548Z,11.90
2022-09-17T18:38:32.887Z,11.70
2022-09-17T18:41:04.518Z,11.60
2022-09-17T18:43:33.049Z,11.60
2022-09-17T18:46:00.806Z,11.70
2022-09-17T18:48:27.999Z,11.60
2022-09-17T18:51:04.155Z,11.70
2022-09-17T18:53:33.914Z,11.50
2022-09-17T18:56:26.735Z,11.50
2022-09-17T18:58:55.600Z,11.50
2022-09-17T19:01:25.206Z,11.50
2022-09-17T19:03:52.787Z,11.50
2022-09-17T19:06:19.943Z,11.70
2022-09-17T19:08:46.914Z,11.60
2022-09-17T19:11:13.790Z,11.60
2022-09-17T19:13:43.450Z,11.60
2022-09-17T19:16:12.377Z,11.60
2022-09-17T19:18:39.382Z,11.50
2022-09-17T19:21:12.142Z,11.60
2022-09-17T19:23:47.136Z,11.60
2022-09-17T19:26:26.303Z,11.60
2022-09-17T19:28:55.005Z,11.60
2022-09-17T19:31:22.520Z,11.60
2022-09-17T19:33:50.464Z,11.70
2022-09-17T19:36:18.597Z,11.50
2022-09-17T19:38:46.154Z,11.50
2022-09-17T19:41:15.444Z,11.60
2022-09-17T19:43:42.375Z,11.60
2022-09-17T19:46:18.191Z,11.70
2022-09-17T19:48:46.367Z,11.40
2022-09-17T19:51:13.894Z,11.50
2022-09-17T19:53:40.862Z,11.40
2022-09-17T19:56:10.820Z,11.40
2022-09-17T19:58:37.569Z,11.40
2022-09-17T20:01:04.546Z,11.50
2022-09-17T20:03:31.373Z,11.40
2022-09-17T20:06:03.097Z,11.50
2022-09-17T20:08:30.656Z,11.50
2022-09-17T20:11:07.989Z,11.50
2022-09-17T20:13:35.510Z,11.50
2022-09-17T20:16:11.611Z,11.60
2022-09-17T20:18:38.807Z,11.70
2022-09-17T20:21:32.536Z,11.80
2022-09-17T20:23:59.761Z,11.60
2022-09-17T20:26:28.370Z,11.80
2022-09-17T20:28:55.476Z,11.60
2022-09-17T20:31:27.668Z,11.60
2022-09-17T20:33:56.707Z,11.60
2022-09-17T20:36:26.355Z,11.60
2022-09-17T20:41:42.991Z,11.60
2022-09-17T20:44:09.823Z,11.70
2022-09-17T20:46:36.608Z,11.60
2022-09-17T20:49:03.456Z,11.50
2022-09-17T20:51:32.660Z,11.50
2022-09-17T20:54:00.955Z,11.50
2022-09-17T20:56:31.387Z,11.50
2022-09-17T20:59:07.732Z,11.40
2022-09-17T21:01:36.827Z,11.30
2022-09-17T21:04:06.324Z,11.30
2022-09-17T21:06:36.079Z,11.20
2022-09-17T21:09:03.488Z,11.20
2022-09-17T21:11:31.359Z,11.10
2022-09-17T21:14:00.254Z,11.10
2022-09-17T21:16:27.564Z,10.90
2022-09-17T21:18:59.456Z,11.00
2022-09-17T21:21:26.448Z,11.10
2022-09-17T21:23:53.789Z,11.00
2022-09-17T21:26:22.970Z,11.00
2022-09-17T21:28:51.450Z,10.90
2022-09-17T21:31:20.599Z,10.80
2022-09-17T21:33:50.921Z,10.80
2022-09-17T21:36:20.034Z,10.80
2022-09-17T21:39:10.022Z,10.80
2022-09-17T21:41:42.087Z,10.70
2022-09-17T21:44:11.363Z,10.70
2022-09-17T21:46:39.254Z,10.60
2022-09-17T21:49:06.638Z,10.60
2022-09-17T21:51:41.686Z,10.70
2022-09-17T21:54:15.337Z,10.60
2022-09-17T21:56:42.590Z,10.70
2022-09-17T21:59:12.077Z,10.80
2022-09-17T22:01:50.697Z,10.80
2022-09-17T22:04:25.745Z,11.00
2022-09-17T22:06:53.216Z,10.90
2022-09-17T22:09:25.546Z,10.90
2022-09-17T22:11:53.383Z,10.80
2022-09-17T22:14:22.550Z,10.80
2022-09-17T22:16:56.924Z,10.70
2022-09-17T22:19:24.889Z,10.80
2022-09-17T22:21:53.788Z,10.70
2022-09-17T22:24:22.240Z,11.40
2022-09-17T22:26:56.571Z,10.80
2022-09-17T22:29:26.082Z,10.80
2022-09-17T22:31:52.985Z,10.80
2022-09-17T22:34:24.256Z,10.80
2022-09-17T22:36:51.220Z,10.70
2022-09-17T22:39:20.980Z,10.60
2022-09-17T22:41:48.374Z,10.50
2022-09-17T22:44:20.607Z,10.50
2022-09-17T22:46:51.276Z,10.60
2022-09-17T22:49:18.675Z,10.60
2022-09-17T22:51:47.145Z,10.50
2022-09-17T22:54:16.559Z,10.50
2022-09-17T22:56:43.466Z,10.50
2022-09-17T22:59:11.093Z,10.70
2022-09-17T23:01:40.392Z,10.50
2022-09-17T23:04:07.378Z,10.50
2022-09-17T23:06:38.044Z,10.60
2022-09-17T23:09:05.301Z,10.50
2022-09-17T23:11:35.006Z,10.70
2022-09-17T23:14:04.682Z,10.50
2022-09-17T23:16:36.567Z,10.40
2022-09-17T23:19:03.512Z,10.40
2022-09-17T23:21:30.374Z,10.30
2022-09-17T23:23:57.280Z,10.30
2022-09-17T23:26:25.845Z,10.30
2022-09-17T23:28:53.308Z,10.40
2022-09-17T23:31:25.513Z,10.40
2022-09-17T23:33:54.960Z,10.30
2022-09-17T23:36:29.919Z,10.20
2022-09-17T23:38:58.764Z,10.20
2022-09-17T23:41:31.719Z,10.30
2022-09-17T23:44:01.302Z,10.20
2022-09-17T23:46:31.319Z,10.20
2022-09-17T23:48:58.674Z,10.10
2022-09-17T23:51:27.752Z,10.10
2022-09-17T23:53:55.102Z,10.00
2022-09-17T23:56:25.025Z,10.10
2022-09-17T23:58:54.529Z,10.20
